Time;durP1;ratioP1;P1;durP2;ratioP2;P2;SDS_P1;SDS_P2;PMS_P1;PMS_P2;Temp;Humidity;BMP_temperature;BMP_pressure;BME280_temperature;BME280_humidity;BME280_pressure;Samples;Min_cycle;Max_cycle;Signal;HPM_P1;HPM_P2
2022/09/02 00:02:21;;;;;;;6.15;1.00;;;17.90;59.20;;;;;;5054660;28;20064;-70
2022/09/02 00:04:47;;;;;;;2.10;0.93;;;17.90;59.90;;;;;;5054595;28;20033;-70
2022/09/02 00:07:13;;;;;;;2.47;1.00;;;17.80;60.30;;;;;;5054987;28;20070;-70
2022/09/02 00:09:39;;;;;;;0.80;0.70;;;17.80;60.00;;;;;;5054414;28;20100;-71
2022/09/02 00:12:05;;;;;;;0.82;0.80;;;17.80;60.10;;;;;;5054949;28;20029;-70
2022/09/02 00:14:36;;;;;;;2.75;0.90;;;17.80;60.60;;;;;;5054944;28;20108;-70
2022/09/02 00:17:03;;;;;;;0.98;0.70;;;17.80;60.70;;;;;;5054867;28;20032;-70
2022/09/02 00:19:29;;;;;;;2.15;1.10;;;17.80;61.20;;;;;;5054499;28;20390;-70
2022/09/02 00:21:56;;;;;;;1.52;0.68;;;17.70;61.20;;;;;;5053991;28;20517;-70
2022/09/02 00:24:22;;;;;;;1.98;0.70;;;17.70;61.40;;;;;;5054720;28;20025;-70
2022/09/02 00:26:49;;;;;;;2.15;0.82;;;17.70;61.70;;;;;;5053800;28;20470;-70
2022/09/02 00:29:14;;;;;;;2.13;0.57;;;17.60;62.00;;;;;;5054576;28;20029;-70
2022/09/02 00:31:42;;;;;;;0.77;0.65;;;17.50;62.20;;;;;;5054032;28;20049;-71
2022/09/02 00:34:09;;;;;;;1.35;0.88;;;17.50;62.80;;;;;;5054514;28;20036;-70
2022/09/02 00:36:35;;;;;;;1.15;0.80;;;17.40;62.80;;;;;;5053927;28;20485;-73
2022/09/02 00:39:03;;;;;;;2.45;0.90;;;17.40;63.30;;;;;;5054437;28;20466;-71
2022/09/02 00:41:31;;;;;;;1.35;0.75;;;17.30;63.10;;;;;;5054394;28;20033;-71
2022/09/02 00:44:03;;;;;;;0.93;0.63;;;17.20;63.40;;;;;;5053744;28;20041;-70
2022/09/02 00:46:30;;;;;;;2.78;0.70;;;17.20;63.70;;;;;;5054258;28;20029;-70
2022/09/02 00:49:23;;;;;;;1.40;0.80;;;17.10;64.00;;;;;;5053908;28;20067;-70
2022/09/02 00:51:57;;;;;;;2.13;0.77;;;17.10;64.40;;;;;;5053621;28;20434;-70
2022/09/02 00:54:25;;;;;;;2.67;0.85;;;17.10;64.60;;;;;;5054042;28;20541;-70
2022/09/02 00:56:52;;;;;;;1.38;0.70;;;17.00;64.70;;;;;;5053501;28;20108;-70
2022/09/02 00:59:41;;;;;;;2.78;0.77;;;17.00;64.80;;;;;;5053975;28;20155;-70
2022/09/02 01:02:08;;;;;;;1.23;0.82;;;17.00;65.40;;;;;;5053841;28;20037;-70
2022/09/02 01:04:34;;;;;;;2.90;0.85;;;16.90;66.10;;;;;;5053864;28;20032;-70
2022/09/02 01:06:59;;;;;;;2.20;1.02;;;16.90;66.20;;;;;;5053216;28;20373;-70
2022/09/02 01:09:25;;;;;;;1.02;0.90;;;16.80;66.30;;;;;;5053467;28;20029;-70
2022/09/02 01:11:52;;;;;;;1.75;1.00;;;16.80;66.40;;;;;;5052544;28;20037;-70
2022/09/02 01:14:18;;;;;;;1.15;0.80;;;16.80;66.80;;;;;;5052759;28;20478;-70
2022/09/02 01:16:49;;;;;;;1.05;0.80;;;16.70;66.80;;;;;;5052778;28;20495;-70
2022/09/02 01:19:24;;;;;;;2.17;0.77;;;16.70;66.70;;;;;;5053960;28;20032;-70
2022/09/02 01:21:55;;;;;;;1.13;0.85;;;16.70;66.80;;;;;;5053053;28;20127;-71
2022/09/02 01:24:24;;;;;;;1.35;0.93;;;16.70;67.00;;;;;;5052223;28;20393;-70
2022/09/02 01:26:55;;;;;;;1.73;0.80;;;16.60;66.80;;;;;;5052699;28;20075;-70
2022/09/02 01:29:21;;;;;;;2.42;1.20;;;16.60;67.20;;;;;;5053232;28;20032;-71
2022/09/02 01:31:47;;;;;;;2.33;0.88;;;16.60;67.30;;;;;;5052973;28;20029;-71
2022/09/02 01:34:13;;;;;;;1.50;0.93;;;16.60;67.60;;;;;;5053440;28;20029;-71
2022/09/02 01:36:40;;;;;;;0.80;0.70;;;16.60;67.20;;;;;;5053264;28;20027;-72
2022/09/02 01:39:08;;;;;;;1.20;0.60;;;16.60;68.10;;;;;;5053225;28;20025;-71
2022/09/02 01:41:34;;;;;;;1.83;1.13;;;16.50;68.30;;;;;;5053100;28;20029;-71
2022/09/02 01:44:00;;;;;;;1.95;0.90;;;16.50;68.50;;;;;;5052686;28;20035;-70
2022/09/02 01:46:26;;;;;;;2.80;0.90;;;16.50;68.60;;;;;;5053109;28;20103;-69
2022/09/02 01:48:52;;;;;;;2.05;0.80;;;16.50;68.70;;;;;;5052628;28;20080;-70
2022/09/02 01:51:19;;;;;;;1.40;0.70;;;16.50;69.30;;;;;;5052986;28;20040;-69
2022/09/02 01:53:47;;;;;;;4.40;1.15;;;16.50;69.80;;;;;;5052119;28;20470;-70
2022/09/02 01:56:13;;;;;;;2.30;0.90;;;16.40;69.90;;;;;;5053130;28;20416;-70
2022/09/02 01:58:40;;;;;;;1.50;0.80;;;16.40;70.00;;;;;;5052874;28;20069;-70
2022/09/02 02:01:06;;;;;;;0.80;0.70;;;16.30;70.40;;;;;;5052126;28;20489;-71
2022/09/02 02:03:32;;;;;;;0.88;0.70;;;16.30;70.60;;;;;;5052981;28;20033;-71
2022/09/02 02:05:58;;;;;;;0.93;0.68;;;16.30;70.80;;;;;;5052723;28;20060;-71
2022/09/02 02:08:24;;;;;;;2.78;0.88;;;16.30;71.00;;;;;;5052754;28;20060;-71
2022/09/02 02:10:50;;;;;;;0.60;0.60;;;16.20;71.60;;;;;;5052166;28;20037;-71
2022/09/02 02:13:16;;;;;;;1.75;0.70;;;16.20;71.80;;;;;;5052806;28;20023;-71
2022/09/02 02:15:42;;;;;;;1.40;0.80;;;16.20;72.20;;;;;;5052607;28;20021;-71
2022/09/02 02:18:09;;;;;;;1.63;0.90;;;16.10;72.50;;;;;;5052384;28;20075;-71
2022/09/02 02:20:36;;;;;;;1.52;0.98;;;16.10;72.80;;;;;;5052619;28;20033;-71
2022/09/02 02:23:04;;;;;;;2.03;1.23;;;16.10;73.00;;;;;;5052057;28;20024;-71
2022/09/02 02:25:30;;;;;;;1.27;0.80;;;16.10;73.10;;;;;;5052423;28;20413;-71
2022/09/02 02:27:56;;;;;;;2.65;0.70;;;16.00;73.40;;;;;;5052051;28;20035;-71
2022/09/02 02:30:21;;;;;;;1.27;0.73;;;16.00;73.60;;;;;;5052416;28;20106;-71
2022/09/02 02:32:47;;;;;;;5.72;0.98;;;16.00;74.00;;;;;;5051967;28;20066;-71
2022/09/02 02:35:15;;;;;;;4.20;1.00;;;16.00;73.80;;;;;;5052436;28;20021;-70
2022/09/02 02:37:42;;;;;;;1.35;0.77;;;16.00;74.20;;;;;;5052373;28;20039;-71
2022/09/02 02:40:09;;;;;;;2.78;1.00;;;16.00;74.40;;;;;;5051814;28;20040;-71
2022/09/02 02:42:34;;;;;;;2.47;0.77;;;15.90;74.20;;;;;;5052277;28;20029;-70
2022/09/02 02:45:00;;;;;;;1.30;1.00;;;15.90;74.50;;;;;;5051757;28;20025;-70
2022/09/02 02:47:26;;;;;;;1.48;0.80;;;15.90;74.70;;;;;;5052442;28;20433;-71
2022/09/02 02:49:52;;;;;;;5.78;1.13;;;15.90;74.90;;;;;;5051791;28;20075;-71
2022/09/02 02:52:18;;;;;;;3.17;0.90;;;15.80;75.10;;;;;;5052361;28;20143;-70
2022/09/02 02:54:43;;;;;;;2.60;0.73;;;15.80;75.20;;;;;;5052257;28;20051;-71
2022/09/02 02:57:09;;;;;;;2.72;0.98;;;15.70;75.80;;;;;;5051663;28;20480;-71
2022/09/02 02:59:35;;;;;;;0.98;0.88;;;15.70;75.90;;;;;;5052215;28;20500;-71
2022/09/02 03:02:02;;;;;;;2.00;1.20;;;15.70;76.00;;;;;;5051757;28;20412;-71
2022/09/02 03:04:27;;;;;;;1.73;0.90;;;15.70;76.50;;;;;;5052172;28;20437;-70
2022/09/02 03:06:53;;;;;;;2.25;1.05;;;15.70;76.60;;;;;;5051883;28;20096;-71
2022/09/02 03:09:19;;;;;;;1.35;0.80;;;15.60;76.60;;;;;;5052201;28;20485;-71
2022/09/02 03:11:45;;;;;;;1.23;0.90;;;15.60;76.80;;;;;;5051831;28;20037;-70
2022/09/02 03:14:11;;;;;;;1.48;0.88;;;15.50;76.80;;;;;;5050915;28;20389;-71
2022/09/02 03:16:37;;;;;;;1.42;0.98;;;15.50;77.30;;;;;;5052207;28;20112;-71
2022/09/02 03:19:03;;;;;;;1.75;1.05;;;15.50;77.10;;;;;;5051610;28;20104;-71
2022/09/02 03:21:28;;;;;;;1.60;1.00;;;15.50;77.00;;;;;;5051538;28;20091;-71
2022/09/02 03:23:55;;;;;;;1.45;1.05;;;15.50;77.50;;;;;;5051480;28;20466;-71
2022/09/02 03:26:23;;;;;;;2.10;1.23;;;15.50;77.40;;;;;;5051762;28;20057;-70
2022/09/02 03:28:49;;;;;;;1.38;1.13;;;15.50;77.50;;;;;;5051916;28;20029;-70
2022/09/02 03:31:20;;;;;;;3.88;1.13;;;15.40;77.50;;;;;;5051723;28;20057;-70
2022/09/02 03:33:45;;;;;;;2.10;0.80;;;15.50;77.80;;;;;;5051625;28;20140;-70
2022/09/02 03:36:20;;;;;;;1.00;0.85;;;15.50;77.30;;;;;;5051610;28;20115;-70
2022/09/02 03:38:46;;;;;;;1.58;0.90;;;15.40;77.40;;;;;;5054177;28;20033;-71
2022/09/02 03:41:12;;;;;;;1.52;0.73;;;15.50;77.70;;;;;;5054911;28;20064;-70
2022/09/02 03:43:37;;;;;;;1.52;0.93;;;15.50;77.70;;;;;;5055412;28;20055;-70
2022/09/02 03:46:04;;;;;;;1.55;1.00;;;15.40;78.10;;;;;;5054863;28;20051;-70
2022/09/02 03:48:30;;;;;;;1.98;1.15;;;15.40;78.30;;;;;;5055351;28;20029;-70
2022/09/02 03:50:56;;;;;;;1.75;1.15;;;15.40;78.50;;;;;;5054643;28;20044;-70
2022/09/02 03:53:21;;;;;;;1.67;1.13;;;15.40;78.90;;;;;;5055187;28;20491;-70
2022/09/02 03:55:48;;;;;;;0.98;0.88;;;15.40;79.20;;;;;;5055374;28;20028;-70
2022/09/02 03:58:13;;;;;;;1.70;1.10;;;15.30;79.20;;;;;;5054316;28;20049;-70
2022/09/02 04:00:40;;;;;;;2.67;1.35;;;15.30;79.40;;;;;;5055012;28;20068;-70
2022/09/02 04:03:06;;;;;;;4.25;1.20;;;15.30;79.60;;;;;;5054632;28;20036;-70
2022/09/02 04:05:32;;;;;;;3.95;1.08;;;15.30;79.90;;;;;;5054897;28;20112;-70
2022/09/02 04:07:58;;;;;;;2.20;1.15;;;15.30;79.70;;;;;;5054404;28;20116;-70
2022/09/02 04:10:24;;;;;;;2.10;1.00;;;15.30;80.10;;;;;;5054913;28;20029;-70
2022/09/02 04:12:50;;;;;;;1.77;0.93;;;15.20;80.20;;;;;;5054781;28;20036;-70
2022/09/02 04:15:16;;;;;;;2.78;0.80;;;15.20;80.30;;;;;;5054256;28;20025;-71
2022/09/02 04:17:42;;;;;;;4.03;1.17;;;15.20;80.50;;;;;;5054721;28;20112;-71
2022/09/02 04:20:10;;;;;;;0.90;0.90;;;15.10;80.60;;;;;;5053969;28;20128;-71
2022/09/02 04:22:36;;;;;;;0.90;0.82;;;15.10;80.70;;;;;;5053846;28;20028;-70
2022/09/02 04:25:03;;;;;;;2.03;1.13;;;15.10;80.60;;;;;;5053970;28;20021;-71
2022/09/02 04:27:29;;;;;;;1.98;1.08;;;15.10;81.20;;;;;;5054335;28;20071;-71
2022/09/02 04:29:55;;;;;;;4.30;1.15;;;15.10;81.00;;;;;;5049839;28;20057;-72
2022/09/02 04:32:21;;;;;;;1.02;0.85;;;15.10;80.90;;;;;;5052373;28;20047;-69
2022/09/02 04:34:47;;;;;;;2.38;1.02;;;15.10;81.10;;;;;;5053680;28;20516;-69
2022/09/02 04:37:13;;;;;;;1.10;0.80;;;15.10;80.80;;;;;;5053371;28;20369;-69
2022/09/02 04:39:39;;;;;;;3.13;1.10;;;15.10;80.50;;;;;;5053803;28;20025;-70
2022/09/02 04:42:05;;;;;;;3.25;1.40;;;15.10;80.50;;;;;;5053345;28;20056;-71
2022/09/02 04:44:31;;;;;;;6.15;1.30;;;15.20;80.90;;;;;;5053641;28;20021;-70
2022/09/02 04:46:57;;;;;;;1.90;1.20;;;15.10;81.00;;;;;;5052190;28;20029;-73
2022/09/02 04:49:23;;;;;;;1.70;1.00;;;15.10;81.00;;;;;;5053667;28;20028;-70
2022/09/02 04:51:49;;;;;;;4.90;1.50;;;15.10;81.30;;;;;;5053793;28;20462;-70
2022/09/02 04:54:15;;;;;;;2.63;1.10;;;15.10;81.20;;;;;;5053375;28;20025;-70
2022/09/02 04:56:41;;;;;;;4.50;1.40;;;15.10;81.40;;;;;;5054541;28;20561;-71
2022/09/02 04:59:06;;;;;;;1.33;1.20;;;15.10;81.50;;;;;;5058093;28;20032;-71
2022/09/02 05:01:35;;;;;;;3.65;1.40;;;15.10;81.80;;;;;;5055423;28;20043;-70
2022/09/02 05:04:03;;;;;;;4.60;1.08;;;15.10;81.30;;;;;;5067853;28;20043;-70
2022/09/02 05:06:29;;;;;;;2.38;1.25;;;15.10;81.90;;;;;;5053703;28;20032;-71
2022/09/02 05:08:56;;;;;;;4.63;1.48;;;15.10;81.40;;;;;;5053607;28;20029;-71
2022/09/02 05:11:27;;;;;;;3.00;1.27;;;15.20;81.40;;;;;;5052886;28;20028;-72
2022/09/02 05:13:53;;;;;;;3.65;1.30;;;15.20;81.10;;;;;;5052365;28;20389;-70
2022/09/02 05:16:22;;;;;;;2.28;1.20;;;15.20;80.60;;;;;;5052871;28;20598;-71
2022/09/02 05:18:49;;;;;;;2.33;1.50;;;15.20;80.60;;;;;;5053136;28;20408;-72
2022/09/02 05:21:14;;;;;;;1.67;1.05;;;15.20;81.00;;;;;;5061405;28;20107;-71
2022/09/02 05:23:41;;;;;;;3.03;2.08;;;15.30;80.70;;;;;;5068748;28;20037;-71
2022/09/02 05:26:09;;;;;;;5.05;1.38;;;15.30;80.80;;;;;;5072666;28;20032;-71
2022/09/02 05:28:35;;;;;;;1.35;1.08;;;15.30;80.90;;;;;;5073073;28;20094;-71
2022/09/02 05:31:11;;;;;;;3.13;1.38;;;15.30;80.60;;;;;;5060415;28;20080;-73
2022/09/02 05:33:39;;;;;;;1.17;1.00;;;15.30;80.80;;;;;;5051909;28;20481;-70
2022/09/02 05:36:06;;;;;;;4.80;1.55;;;15.30;80.70;;;;;;5052600;28;20377;-71
2022/09/02 05:38:33;;;;;;;5.07;1.40;;;15.30;80.30;;;;;;5053117;28;20037;-70
2022/09/02 05:41:06;;;;;;;2.60;1.30;;;15.40;80.40;;;;;;5053154;28;20033;-71
2022/09/02 05:43:37;;;;;;;3.35;1.45;;;15.40;80.80;;;;;;5053075;28;20036;-71
2022/09/02 05:46:05;;;;;;;3.67;0.90;;;15.40;80.90;;;;;;5053020;28;20063;-71
2022/09/02 05:51:15;;;;;;;4.40;1.20;;;15.40;80.60;;;;;;5052183;28;20361;-71
2022/09/02 05:53:41;;;;;;;2.88;1.20;;;15.50;80.20;;;;;;5052559;28;20084;-70
2022/09/02 05:56:07;;;;;;;2.00;1.10;;;15.50;80.50;;;;;;5052214;28;20025;-72
2022/09/02 05:58:32;;;;;;;1.63;1.20;;;15.50;79.70;;;;;;5052814;28;20459;-71
2022/09/02 06:00:58;;;;;;;5.28;1.25;;;15.60;79.60;;;;;;5052302;28;20099;-71
2022/09/02 06:03:23;;;;;;;1.65;1.05;;;15.70;79.80;;;;;;5051872;28;20101;-70
2022/09/02 06:05:54;;;;;;;3.20;1.30;;;15.90;79.20;;;;;;5051754;28;20544;-70
2022/09/02 06:08:20;;;;;;;1.30;1.05;;;16.00;77.70;;;;;;5051073;28;20025;-71
2022/09/02 06:10:45;;;;;;;3.72;1.20;;;16.20;77.20;;;;;;5052354;28;20113;-70
2022/09/02 06:13:11;;;;;;;1.42;1.08;;;16.30;75.30;;;;;;5051563;28;20021;-70
2022/09/02 06:15:42;;;;;;;1.50;1.17;;;16.40;74.20;;;;;;5051953;28;20025;-70
2022/09/02 06:18:09;;;;;;;2.63;1.00;;;16.60;73.30;;;;;;5052304;28;20021;-70
2022/09/02 06:20:38;;;;;;;2.60;1.20;;;16.80;72.20;;;;;;5052256;28;20037;-70
2022/09/02 06:23:03;;;;;;;2.22;1.00;;;16.90;72.30;;;;;;5052232;28;20114;-70
2022/09/02 06:25:29;;;;;;;2.80;1.10;;;17.20;70.90;;;;;;5052682;28;20494;-70
2022/09/02 06:27:55;;;;;;;2.15;0.90;;;17.50;69.60;;;;;;5052669;28;20033;-70
2022/09/02 06:30:20;;;;;;;2.88;1.08;;;17.80;67.90;;;;;;5051717;28;20111;-70
2022/09/02 06:32:46;;;;;;;2.88;1.00;;;18.00;67.30;;;;;;5052385;28;20025;-70
2022/09/02 06:35:12;;;;;;;2.25;1.00;;;18.30;64.60;;;;;;5052125;28;20064;-69
2022/09/02 06:37:38;;;;;;;3.83;1.55;;;18.50;64.60;;;;;;5052727;28;20029;-70
2022/09/02 06:40:05;;;;;;;1.67;1.02;;;18.80;64.20;;;;;;5052219;28;20025;-72
2022/09/02 06:42:30;;;;;;;4.53;1.23;;;19.10;62.60;;;;;;5052721;28;20032;-71
2022/09/02 06:44:56;;;;;;;1.83;1.10;;;19.40;61.30;;;;;;5052457;28;20033;-70
2022/09/02 06:47:21;;;;;;;1.50;1.27;;;19.80;61.10;;;;;;5052140;28;20029;-70
2022/09/02 06:49:47;;;;;;;5.95;1.15;;;20.20;60.30;;;;;;5052391;28;20107;-70
2022/09/02 06:52:13;;;;;;;2.22;1.20;;;20.80;59.00;;;;;;5051554;28;20414;-71
2022/09/02 06:54:38;;;;;;;1.90;1.00;;;21.20;56.30;;;;;;5052341;28;20040;-70
2022/09/02 06:57:04;;;;;;;3.15;1.20;;;21.60;54.80;;;;;;5052319;28;20040;-70
2022/09/02 06:59:30;;;;;;;2.55;0.93;;;22.00;54.20;;;;;;5052421;28;20100;-70
2022/09/02 07:01:56;;;;;;;1.85;1.00;;;22.50;52.90;;;;;;5052230;28;20041;-70
2022/09/02 07:07:07;;;;;;;4.63;1.42;;;23.40;49.70;;;;;;5051179;28;20401;-72
2022/09/02 07:09:33;;;;;;;3.92;2.20;;;24.00;48.00;;;;;;5052155;28;20110;-72
2022/09/02 07:12:01;;;;;;;2.88;1.30;;;24.50;46.80;;;;;;5052088;28;20584;-71
2022/09/02 07:14:27;;;;;;;4.25;1.08;;;25.50;45.30;;;;;;5055341;28;20102;-71
2022/09/02 07:16:56;;;;;;;3.35;1.08;;;26.50;43.90;;;;;;5056068;28;20525;-71
2022/09/02 07:19:22;;;;;;;4.25;1.30;;;27.30;41.50;;;;;;5055330;28;20458;-70
2022/09/02 07:21:48;;;;;;;2.20;0.90;;;28.20;40.10;;;;;;5056098;28;20091;-70
2022/09/02 07:24:14;;;;;;;1.80;1.00;;;29.20;39.80;;;;;;5055539;28;20087;-70
2022/09/02 07:26:41;;;;;;;2.75;1.05;;;29.80;37.40;;;;;;5055511;28;20017;-70
2022/09/02 07:29:08;;;;;;;2.78;0.85;;;30.30;36.80;;;;;;5055893;28;20461;-70
2022/09/02 07:31:39;;;;;;;1.67;1.02;;;30.90;36.30;;;;;;5056139;28;20049;-70
2022/09/02 07:34:06;;;;;;;4.50;1.27;;;31.60;35.70;;;;;;5055240;28;20036;-70
2022/09/02 07:36:34;;;;;;;1.40;0.80;;;32.10;33.60;;;;;;5055165;28;20478;-69
2022/09/02 07:39:00;;;;;;;1.63;1.10;;;32.30;33.90;;;;;;5055742;28;20488;-69
2022/09/02 07:41:26;;;;;;;1.42;0.98;;;32.30;32.70;;;;;;5055193;28;20043;-70
2022/09/02 07:43:52;;;;;;;2.65;1.08;;;32.70;33.70;;;;;;5055444;28;20025;-70
2022/09/02 07:46:19;;;;;;;3.72;1.98;;;32.70;32.50;;;;;;5054684;28;20033;-70
2022/09/02 07:48:44;;;;;;;2.88;1.20;;;32.70;32.30;;;;;;5055285;28;20024;-69
2022/09/02 07:51:10;;;;;;;1.33;1.10;;;33.30;32.10;;;;;;5054492;28;20164;-70
2022/09/02 07:53:36;;;;;;;2.90;1.00;;;33.60;32.30;;;;;;5055338;28;20358;-70
2022/09/02 07:56:02;;;;;;;2.60;1.33;;;34.10;31.20;;;;;;5055368;28;20017;-70
2022/09/02 07:58:28;;;;;;;2.58;1.30;;;34.50;31.40;;;;;;5054953;28;20029;-70
2022/09/02 08:00:55;;;;;;;3.45;1.23;;;34.50;31.20;;;;;;5055497;28;20470;-69
2022/09/02 08:03:24;;;;;;;1.63;0.70;;;33.60;30.50;;;;;;5054862;28;20029;-70
2022/09/02 08:05:50;;;;;;;1.60;0.98;;;33.40;31.20;;;;;;5054895;28;20104;-70
2022/09/02 08:08:19;;;;;;;1.30;0.80;;;33.80;30.60;;;;;;5054415;28;20502;-70
2022/09/02 08:10:46;;;;;;;1.88;1.13;;;34.20;30.00;;;;;;5055001;28;20037;-70
2022/09/02 08:13:12;;;;;;;1.65;1.00;;;34.10;30.10;;;;;;5054547;28;20393;-70
2022/09/02 08:15:38;;;;;;;2.55;0.95;;;34.90;29.80;;;;;;5054567;28;20023;-70
2022/09/02 08:18:05;;;;;;;1.83;0.98;;;35.50;29.20;;;;;;5055008;28;20114;-70
2022/09/02 08:20:31;;;;;;;1.83;0.70;;;35.70;29.00;;;;;;5054091;28;20601;-70
2022/09/02 08:22:57;;;;;;;2.22;0.85;;;35.70;28.70;;;;;;5054695;28;20035;-69
2022/09/02 08:25:23;;;;;;;1.17;0.90;;;35.40;29.50;;;;;;5053808;28;20116;-71
2022/09/02 08:27:49;;;;;;;1.98;0.77;;;34.00;29.10;;;;;;5054470;28;20076;-71
2022/09/02 08:30:15;;;;;;;1.33;0.93;;;32.00;30.60;;;;;;5053887;28;20084;-71
2022/09/02 08:32:41;;;;;;;2.53;1.10;;;30.90;31.90;;;;;;5054574;28;20035;-70
2022/09/02 08:35:08;;;;;;;1.70;1.10;;;30.10;32.60;;;;;;5054596;28;20075;-70
2022/09/02 08:37:36;;;;;;;2.38;1.15;;;29.40;34.10;;;;;;5054116;28;20029;-70
2022/09/02 08:40:05;;;;;;;2.17;1.10;;;28.60;34.80;;;;;;5054455;28;20116;-70
2022/09/02 08:42:47;;;;;;;3.85;1.40;;;27.80;36.00;;;;;;5054036;28;20021;-68
2022/09/02 08:45:27;;;;;;;3.28;1.30;;;27.20;36.60;;;;;;5054165;28;20029;-74
2022/09/02 08:48:19;;;;;;;2.15;0.98;;;26.70;37.70;;;;;;5054815;28;20029;-71
2022/09/02 08:50:46;;;;;;;1.35;1.00;;;26.20;39.00;;;;;;5050975;28;20041;-71
2022/09/02 08:53:35;;;;;;;4.55;1.35;;;26.00;39.30;;;;;;5054242;28;20075;-71
2022/09/02 08:56:04;;;;;;;4.57;1.17;;;25.20;40.30;;;;;;5054087;28;20510;-70
2022/09/02 08:58:40;;;;;;;2.28;1.05;;;25.00;40.80;;;;;;5053689;28;20363;-70
2022/09/02 09:01:43;;;;;;;1.50;1.00;;;24.70;41.50;;;;;;5054133;28;20040;-71
2022/09/02 09:04:41;;;;;;;2.28;1.20;;;24.60;41.80;;;;;;5053463;28;20028;-70
2022/09/02 09:07:18;;;;;;;1.98;1.00;;;24.50;41.90;;;;;;5054085;28;20025;-70
2022/09/02 09:09:59;;;;;;;1.40;0.90;;;24.40;42.70;;;;;;5054008;28;20033;-71
2022/09/02 09:13:03;;;;;;;1.75;1.15;;;24.40;43.20;;;;;;5052052;28;20075;-71
2022/09/02 09:15:58;;;;;;;1.77;1.00;;;24.30;42.70;;;;;;5031381;28;20034;-70
2022/09/02 09:18:36;;;;;;;1.02;0.73;;;24.00;42.70;;;;;;5031244;28;20033;-71
2022/09/02 09:21:03;;;;;;;2.67;1.05;;;23.90;43.20;;;;;;5031352;28;20044;-70
2022/09/02 09:23:34;;;;;;;2.25;1.35;;;23.70;43.60;;;;;;5030848;28;20105;-71
2022/09/02 09:26:10;;;;;;;2.67;1.15;;;23.70;44.80;;;;;;5031363;28;20053;-70
2022/09/02 09:28:40;;;;;;;2.28;1.10;;;23.70;43.60;;;;;;5030954;28;20370;-70
2022/09/02 09:31:11;;;;;;;2.10;0.98;;;23.60;43.40;;;;;;5030700;28;20064;-70
2022/09/02 09:33:37;;;;;;;2.58;0.95;;;23.70;43.40;;;;;;5030797;28;20038;-70
2022/09/02 09:36:04;;;;;;;1.17;0.88;;;23.80;43.00;;;;;;5030502;28;20025;-71
2022/09/02 09:38:35;;;;;;;4.30;0.90;;;23.90;43.20;;;;;;5030793;28;20061;-70
2022/09/02 09:41:15;;;;;;;1.85;0.70;;;23.90;42.70;;;;;;5031087;28;20112;-70
2022/09/02 09:43:41;;;;;;;2.15;1.10;;;23.90;42.50;;;;;;5030612;28;20052;-71
2022/09/02 09:46:33;;;;;;;3.35;0.95;;;23.90;42.70;;;;;;5041038;28;20112;-70
2022/09/02 09:48:59;;;;;;;0.80;0.70;;;24.20;43.70;;;;;;5051928;28;20504;-70
2022/09/02 09:51:25;;;;;;;1.50;0.80;;;24.20;41.80;;;;;;5052574;28;20120;-70
2022/09/02 09:53:52;;;;;;;1.45;0.90;;;24.20;41.00;;;;;;5052484;28;20021;-70
2022/09/02 09:56:26;;;;;;;2.90;0.80;;;24.20;40.40;;;;;;5052845;28;20075;-70
2022/09/02 09:58:51;;;;;;;3.65;1.30;;;24.20;41.00;;;;;;5053015;28;20036;-70
2022/09/02 10:01:29;;;;;;;1.73;0.90;;;24.30;41.70;;;;;;5052654;28;20032;-71
2022/09/02 10:03:56;;;;;;;1.83;1.00;;;24.20;42.30;;;;;;5052522;28;20540;-70
2022/09/02 10:06:29;;;;;;;3.17;0.95;;;24.30;42.90;;;;;;5052317;28;20028;-70
2022/09/02 10:08:59;;;;;;;1.08;0.77;;;24.30;42.10;;;;;;5052430;28;20454;-70
2022/09/02 10:11:27;;;;;;;2.42;0.80;;;24.30;41.50;;;;;;5052317;28;20069;-70
2022/09/02 10:14:04;;;;;;;1.85;0.90;;;24.30;41.20;;;;;;5052784;28;20355;-69
2022/09/02 10:17:17;;;;;;;2.67;0.70;;;24.40;40.90;;;;;;5052290;28;20033;-71
2022/09/02 10:19:55;;;;;;;1.45;0.80;;;24.50;40.50;;;;;;5047197;28;20112;-71
2022/09/02 10:22:35;;;;;;;2.50;1.08;;;24.20;40.40;;;;;;5052216;28;20033;-71
2022/09/02 10:25:26;;;;;;;0.82;0.70;;;24.40;40.40;;;;;;5052696;28;20090;-71
2022/09/02 10:28:06;;;;;;;1.42;0.70;;;24.50;40.00;;;;;;5052414;28;20056;-71
2022/09/02 10:30:48;;;;;;;1.17;0.82;;;24.70;40.40;;;;;;5051879;28;20114;-71
2022/09/02 10:33:39;;;;;;;2.60;1.10;;;24.80;40.80;;;;;;5052243;28;20036;-71
2022/09/02 10:36:16;;;;;;;1.38;0.80;;;25.00;40.10;;;;;;5052371;28;20112;-71
2022/09/02 10:38:47;;;;;;;1.40;0.60;;;24.90;39.10;;;;;;5052102;28;20355;-70
2022/09/02 10:41:30;;;;;;;1.40;0.73;;;24.90;39.80;;;;;;5052234;28;20057;-72
2022/09/02 10:44:01;;;;;;;1.92;1.08;;;24.90;39.70;;;;;;5052207;28;20037;-71
2022/09/02 10:46:42;;;;;;;3.42;0.98;;;24.90;40.60;;;;;;5052123;28;20074;-70
2022/09/02 10:49:36;;;;;;;1.10;0.70;;;25.00;39.60;;;;;;5056908;28;20036;-70
2022/09/02 10:52:16;;;;;;;3.60;1.60;;;25.00;39.10;;;;;;5055746;28;20037;-70
2022/09/02 10:54:55;;;;;;;1.67;0.80;;;25.00;39.60;;;;;;5055647;28;20236;-70
2022/09/02 10:57:51;;;;;;;0.95;0.60;;;25.20;40.10;;;;;;5056233;28;20028;-70
2022/09/02 11:00:19;;;;;;;2.10;0.90;;;25.30;39.20;;;;;;5047404;28;20129;-71
2022/09/02 11:02:51;;;;;;;2.55;0.90;;;25.40;37.30;;;;;;5055586;28;20445;-70
2022/09/02 11:05:42;;;;;;;1.52;0.80;;;25.20;36.60;;;;;;5055730;28;20458;-70
2022/09/02 11:08:38;;;;;;;1.95;0.77;;;25.20;36.70;;;;;;5055723;28;20373;-70
2022/09/02 11:11:23;;;;;;;1.10;0.77;;;25.30;37.20;;;;;;5055888;28;20040;-71
2022/09/02 11:13:51;;;;;;;1.85;0.93;;;25.40;38.00;;;;;;5056399;28;20040;-71
2022/09/02 11:16:26;;;;;;;1.23;0.60;;;25.50;38.60;;;;;;5056024;28;20497;-70
2022/09/02 11:19:04;;;;;;;0.95;0.70;;;25.50;38.10;;;;;;5055820;28;20021;-71
2022/09/02 11:21:57;;;;;;;1.08;0.85;;;25.60;38.70;;;;;;5055449;28;20067;-70
2022/09/02 11:24:32;;;;;;;0.88;0.70;;;25.70;37.60;;;;;;5055637;28;20056;-70
2022/09/02 11:27:13;;;;;;;1.48;0.80;;;25.80;37.50;;;;;;5055727;28;20029;-71
2022/09/02 11:29:48;;;;;;;2.42;0.68;;;25.70;37.30;;;;;;5054943;28;20414;-71
2022/09/02 11:32:22;;;;;;;5.28;0.93;;;25.70;37.60;;;;;;5055415;28;20465;-71
2022/09/02 11:34:51;;;;;;;1.25;0.68;;;25.70;37.50;;;;;;5054988;28;20083;-71
2022/09/02 11:37:43;;;;;;;1.52;0.70;;;25.60;37.40;;;;;;5055449;28;20028;-71
2022/09/02 11:40:17;;;;;;;1.40;0.70;;;25.60;37.30;;;;;;5054258;28;20124;-71
2022/09/02 11:42:43;;;;;;;0.85;0.52;;;25.30;37.50;;;;;;5054984;28;20021;-71
2022/09/02 11:45:27;;;;;;;1.83;0.77;;;25.50;38.60;;;;;;5055339;28;20021;-71
2022/09/02 11:48:21;;;;;;;2.28;0.88;;;25.50;37.70;;;;;;5055278;28;20025;-70
2022/09/02 11:50:54;;;;;;;2.08;1.25;;;25.40;37.80;;;;;;5045172;28;20087;-70
2022/09/02 11:53:24;;;;;;;1.38;0.90;;;25.50;38.40;;;;;;5055396;28;20087;-70
2022/09/02 11:55:57;;;;;;;1.20;0.70;;;25.60;37.80;;;;;;5054677;28;20047;-71
2022/09/02 11:58:35;;;;;;;0.90;0.80;;;25.60;37.50;;;;;;5054531;28;20021;-72
2022/09/02 12:01:31;;;;;;;1.45;0.82;;;25.40;37.40;;;;;;5055106;28;20021;-70
2022/09/02 12:04:17;;;;;;;1.67;0.93;;;25.50;37.80;;;;;;5054922;28;20458;-71
2022/09/02 12:07:05;;;;;;;2.03;0.93;;;25.30;37.40;;;;;;5054797;28;20029;-70
2022/09/02 12:09:50;;;;;;;3.70;1.00;;;25.40;38.10;;;;;;5054673;28;20083;-69
2022/09/02 12:12:37;;;;;;;0.90;0.75;;;25.30;37.90;;;;;;5054838;28;20120;-70
2022/09/02 12:15:07;;;;;;;0.90;0.70;;;25.30;37.90;;;;;;5054771;28;20025;-70
2022/09/02 12:17:39;;;;;;;2.33;1.00;;;25.10;37.80;;;;;;5054165;28;20041;-71
2022/09/02 12:20:08;;;;;;;2.95;0.80;;;25.10;38.10;;;;;;5054662;28;20480;-71
2022/09/02 12:22:38;;;;;;;1.10;0.65;;;25.00;38.20;;;;;;5054204;28;20049;-71
2022/09/02 12:25:23;;;;;;;3.17;0.70;;;24.90;38.80;;;;;;5054774;28;20032;-72
2022/09/02 12:27:49;;;;;;;2.15;0.80;;;24.80;39.10;;;;;;5054210;28;20025;-71
2022/09/02 12:30:53;;;;;;;2.75;0.70;;;24.80;39.40;;;;;;5054225;28;20119;-71
2022/09/02 12:33:30;;;;;;;1.83;0.90;;;24.80;39.30;;;;;;5054288;28;20057;-71
2022/09/02 12:35:57;;;;;;;2.80;0.75;;;24.70;39.40;;;;;;5054660;28;20110;-71
2022/09/02 12:38:24;;;;;;;2.00;0.80;;;24.70;39.70;;;;;;5054431;28;20035;-71
2022/09/02 12:40:53;;;;;;;1.17;0.82;;;24.60;40.00;;;;;;5054051;28;20047;-70
2022/09/02 12:43:26;;;;;;;0.80;0.80;;;24.50;39.80;;;;;;5054395;28;20029;-71
2022/09/02 12:45:55;;;;;;;0.57;0.50;;;24.50;39.90;;;;;;5053996;28;20029;-71
2022/09/02 12:48:27;;;;;;;1.08;0.70;;;24.40;40.40;;;;;;5054239;28;20029;-70
2022/09/02 12:50:57;;;;;;;1.50;0.77;;;24.30;40.20;;;;;;5053735;28;20025;-70
2022/09/02 12:53:23;;;;;;;1.10;0.75;;;24.20;40.50;;;;;;5054159;28;20086;-70
2022/09/02 12:55:54;;;;;;;1.25;0.65;;;24.10;40.70;;;;;;5053701;28;20033;-70
2022/09/02 12:58:21;;;;;;;1.63;0.70;;;24.00;40.70;;;;;;5054125;28;20028;-70
2022/09/02 13:01:05;;;;;;;1.70;0.93;;;24.00;40.90;;;;;;5053570;28;20028;-70
2022/09/02 13:04:05;;;;;;;1.40;0.85;;;23.90;40.80;;;;;;5053694;28;20033;-70
2022/09/02 13:07:01;;;;;;;1.03;0.73;;;23.80;41.30;;;;;;5053931;28;20017;-71
2022/09/02 13:09:32;;;;;;;3.70;0.80;;;23.80;41.50;;;;;;5053079;28;20036;-70
2022/09/02 13:12:00;;;;;;;2.05;0.75;;;23.70;40.80;;;;;;5052618;28;20029;-70